Time;durP1;ratioP1;P1;durP2;ratioP2;P2;SDS_P1;SDS_P2;PMS_P1;PMS_P2;Temp;Humidity;BMP_temperature;BMP_pressure;BME280_temperature;BME280_humidity;BME280_pressure;Samples;Min_cycle;Max_cycle;Signal;HPM_P1;HPM_P2
2024/01/08 00:01:14;;;;;;;4.82;2.72;;;;;;;;;;5031666;28;20495;-74
2024/01/08 00:03:39;;;;;;;4.55;2.90;;;;;;;;;;5031442;28;20037;-75
2024/01/08 00:06:05;;;;;;;3.63;2.63;;;;;;;;;;5026701;28;20041;-73
2024/01/08 00:08:30;;;;;;;3.75;2.25;;;;;;;;;;5023744;28;20116;-75
2024/01/08 00:10:56;;;;;;;7.15;3.00;;;;;;;;;;5017095;28;20100;-75
2024/01/08 00:13:21;;;;;;;3.40;2.55;;;;;;;;;;5033963;28;20497;-74
2024/01/08 00:15:47;;;;;;;3.17;2.40;;;;;;;;;;5032181;28;20143;-73
2024/01/08 00:18:12;;;;;;;4.07;2.85;;;;;;;;;;5014748;28;20048;-75
2024/01/08 00:20:37;;;;;;;6.70;3.10;;;;;;;;;;5024295;28;20075;-75
2024/01/08 00:23:03;;;;;;;4.57;3.15;;;;;;;;;;5030057;28;20045;-76
2024/01/08 00:25:28;;;;;;;5.50;3.30;;;;;;;;;;5028317;28;20045;-76
2024/01/08 00:27:56;;;;;;;4.10;2.92;;;;;;;;;;5033699;28;20382;-74
2024/01/08 00:30:21;;;;;;;4.25;2.70;;;;;;;;;;5038863;28;20080;-75
2024/01/08 00:32:47;;;;;;;4.75;3.22;;;;;;;;;;5039131;28;20037;-75
2024/01/08 00:35:13;;;;;;;4.28;2.95;;;;;;;;;;5023747;28;20044;-76
2024/01/08 00:37:40;;;;;;;4.93;2.85;;;;;;;;;;5019380;28;20778;-75
2024/01/08 00:40:09;;;;;;;3.88;2.92;;;;;;;;;;5035921;28;20051;-75
2024/01/08 00:42:36;;;;;;;5.05;3.13;;;;;;;;;;5033149;28;20106;-74
2024/01/08 00:45:05;;;;;;;5.43;3.42;;;;;;;;;;5038296;28;20037;-75
2024/01/08 00:47:30;;;;;;;4.32;2.72;;;;;;;;;;5022537;28;20041;-75
2024/01/08 00:49:56;;;;;;;5.55;2.90;;;;;;;;;;5033214;28;20048;-75
2024/01/08 00:52:21;;;;;;;4.97;2.78;;;;;;;;;;5020523;28;20061;-75
2024/01/08 00:54:47;;;;;;;3.70;2.55;;;;;;;;;;5032165;28;20045;-76
2024/01/08 00:57:12;;;;;;;5.60;3.00;;;;;;;;;;5036134;28;20048;-75
2024/01/08 00:59:38;;;;;;;3.03;2.00;;;;;;;;;;5008595;28;20041;-75
2024/01/08 01:02:03;;;;;;;3.58;2.53;;;;;;;;;;5027137;28;20033;-76
2024/01/08 01:04:29;;;;;;;3.97;2.95;;;;;;;;;;5028794;28;20068;-75
2024/01/08 01:06:54;;;;;;;3.33;2.10;;;;;;;;;;5020101;28;20041;-76
2024/01/08 01:09:19;;;;;;;3.17;2.60;;;;;;;;;;5028189;28;20048;-76
2024/01/08 01:11:45;;;;;;;4.45;2.83;;;;;;;;;;5026531;28;20068;-76
2024/01/08 01:14:10;;;;;;;4.57;2.03;;;;;;;;;;5031343;28;20443;-76
2024/01/08 01:16:36;;;;;;;2.70;2.25;;;;;;;;;;5026453;28;20123;-76
2024/01/08 01:19:01;;;;;;;4.88;3.40;;;;;;;;;;5027976;28;20037;-75
2024/01/08 01:21:28;;;;;;;3.45;2.53;;;;;;;;;;5017541;28;20043;-75
2024/01/08 01:23:54;;;;;;;2.97;1.73;;;;;;;;;;5027329;28;20119;-75
2024/01/08 01:26:19;;;;;;;3.20;2.15;;;;;;;;;;5013682;28;20136;-75
2024/01/08 01:28:45;;;;;;;3.60;2.42;;;;;;;;;;5036107;28;20037;-75
2024/01/08 01:31:10;;;;;;;4.07;2.17;;;;;;;;;;5025235;28;20040;-75
2024/01/08 01:33:36;;;;;;;3.72;2.30;;;;;;;;;;5023966;28;20037;-76
2024/01/08 01:36:01;;;;;;;4.47;3.10;;;;;;;;;;5025301;28;21250;-75
2024/01/08 01:38:27;;;;;;;4.88;3.40;;;;;;;;;;5009055;28;20064;-76
2024/01/08 01:40:53;;;;;;;6.30;4.13;;;;;;;;;;5029481;28;20037;-75
2024/01/08 01:43:24;;;;;;;4.78;3.05;;;;;;;;;;5028018;28;20106;-75
2024/01/08 01:45:52;;;;;;;7.22;3.70;;;;;;;;;;5029049;28;20494;-76
2024/01/08 01:48:18;;;;;;;4.40;2.90;;;;;;;;;;5008784;28;20121;-75
2024/01/08 01:50:43;;;;;;;7.78;4.80;;;;;;;;;;5016115;28;20106;-76
2024/01/08 01:53:09;;;;;;;8.05;4.82;;;;;;;;;;5031050;28;20037;-75
2024/01/08 01:55:36;;;;;;;6.18;3.80;;;;;;;;;;5033530;28;20045;-77
2024/01/08 01:58:01;;;;;;;8.57;4.43;;;;;;;;;;5032681;28;20041;-76
2024/01/08 02:00:27;;;;;;;7.75;4.57;;;;;;;;;;5012697;28;20382;-76
2024/01/08 02:02:53;;;;;;;6.18;3.60;;;;;;;;;;5007089;28;20045;-76
2024/01/08 02:05:19;;;;;;;5.82;3.85;;;;;;;;;;5032914;28;20062;-75
2024/01/08 02:07:47;;;;;;;7.25;4.55;;;;;;;;;;5030780;28;20557;-75
2024/01/08 02:10:12;;;;;;;5.70;3.10;;;;;;;;;;5017188;28;20039;-75
2024/01/08 02:12:38;;;;;;;7.85;3.83;;;;;;;;;;5032368;28;20037;-76
2024/01/08 02:15:04;;;;;;;5.85;4.15;;;;;;;;;;5039753;28;20039;-76
2024/01/08 02:17:30;;;;;;;6.07;3.80;;;;;;;;;;5004759;28;20142;-76
2024/01/08 02:19:56;;;;;;;6.65;3.92;;;;;;;;;;5036379;28;20106;-77
2024/01/08 02:22:21;;;;;;;6.32;4.00;;;;;;;;;;5018480;28;20444;-75
2024/01/08 02:24:47;;;;;;;4.85;3.30;;;;;;;;;;5032484;28;20120;-78
2024/01/08 02:27:13;;;;;;;7.47;3.88;;;;;;;;;;5035586;28;20033;-77
2024/01/08 02:29:38;;;;;;;5.68;3.40;;;;;;;;;;5022709;28;20033;-77
2024/01/08 02:32:06;;;;;;;5.60;3.33;;;;;;;;;;5037973;28;20126;-76
2024/01/08 02:34:31;;;;;;;6.70;3.53;;;;;;;;;;5014420;28;20037;-76
2024/01/08 02:36:57;;;;;;;4.25;2.28;;;;;;;;;;5037167;28;20068;-77
2024/01/08 02:39:22;;;;;;;7.57;3.22;;;;;;;;;;5029899;28;20033;-76
2024/01/08 02:41:47;;;;;;;4.88;3.55;;;;;;;;;;5038113;28;20055;-77
2024/01/08 02:44:13;;;;;;;4.55;2.80;;;;;;;;;;5023286;28;20029;-76
2024/01/08 02:46:38;;;;;;;5.43;3.80;;;;;;;;;;5033773;28;20137;-77
2024/01/08 02:49:04;;;;;;;5.82;3.30;;;;;;;;;;5038477;28;20051;-75
2024/01/08 02:51:29;;;;;;;3.80;2.67;;;;;;;;;;5008731;28;20199;-77
2024/01/08 02:53:55;;;;;;;6.88;3.58;;;;;;;;;;5033217;28;20040;-76
2024/01/08 02:56:21;;;;;;;5.00;3.35;;;;;;;;;;5034941;28;20041;-75
2024/01/08 02:58:47;;;;;;;5.15;2.65;;;;;;;;;;5006916;28;20044;-75
2024/01/08 03:01:13;;;;;;;6.05;3.30;;;;;;;;;;5033042;28;20118;-76
2024/01/08 03:03:38;;;;;;;5.78;2.80;;;;;;;;;;5036849;28;20092;-77
2024/01/08 03:06:03;;;;;;;4.93;3.08;;;;;;;;;;5032549;28;20041;-76
2024/01/08 03:08:29;;;;;;;4.93;3.03;;;;;;;;;;5035236;28;20037;-77
2024/01/08 03:10:54;;;;;;;7.05;2.97;;;;;;;;;;5039213;28;20043;-75
2024/01/08 03:13:19;;;;;;;5.57;2.95;;;;;;;;;;5023802;28;20676;-76
2024/01/08 03:15:45;;;;;;;6.65;3.90;;;;;;;;;;5012841;28;20052;-77
2024/01/08 03:18:10;;;;;;;5.40;3.00;;;;;;;;;;5038377;28;20111;-76
2024/01/08 03:20:35;;;;;;;6.22;4.68;;;;;;;;;;5043199;28;20145;-76
2024/01/08 03:23:01;;;;;;;3.50;2.35;;;;;;;;;;5041777;28;20033;-76
2024/01/08 03:25:26;;;;;;;6.45;4.53;;;;;;;;;;5025126;28;22082;-76
2024/01/08 03:27:51;;;;;;;6.25;4.28;;;;;;;;;;5023160;28;20033;-75
2024/01/08 03:30:17;;;;;;;6.47;4.35;;;;;;;;;;5037660;28;20041;-77
2024/01/08 03:32:42;;;;;;;4.43;2.67;;;;;;;;;;5033543;28;20052;-77
2024/01/08 03:35:08;;;;;;;6.97;3.40;;;;;;;;;;5034161;28;20041;-77
2024/01/08 03:37:33;;;;;;;6.13;4.50;;;;;;;;;;5037035;28;20138;-76
2024/01/08 03:39:58;;;;;;;5.80;3.42;;;;;;;;;;5041089;28;20049;-76
2024/01/08 03:42:24;;;;;;;5.10;3.92;;;;;;;;;;5025711;28;20050;-75
2024/01/08 03:44:50;;;;;;;5.18;2.90;;;;;;;;;;5030198;28;20033;-76
2024/01/08 03:47:15;;;;;;;6.65;3.60;;;;;;;;;;5036693;28;20606;-76
2024/01/08 03:49:41;;;;;;;5.78;3.15;;;;;;;;;;5043031;28;20079;-76
2024/01/08 03:52:06;;;;;;;4.85;3.00;;;;;;;;;;5017093;28;20033;-77
2024/01/08 03:54:31;;;;;;;7.03;3.60;;;;;;;;;;5031327;28;20060;-75
2024/01/08 03:56:57;;;;;;;6.55;3.40;;;;;;;;;;5024347;28;20464;-76
2024/01/08 03:59:22;;;;;;;4.90;3.63;;;;;;;;;;5022346;28;20044;-75
2024/01/08 04:01:50;;;;;;;4.78;3.10;;;;;;;;;;5031590;28;20087;-75
2024/01/08 04:04:16;;;;;;;4.70;3.30;;;;;;;;;;5020222;28;20598;-76
2024/01/08 04:06:41;;;;;;;4.28;3.00;;;;;;;;;;5033286;28;20047;-76
2024/01/08 04:09:06;;;;;;;5.30;4.10;;;;;;;;;;5017423;28;20796;-76
2024/01/08 04:11:32;;;;;;;4.38;2.85;;;;;;;;;;5025778;28;20102;-75
2024/01/08 04:13:57;;;;;;;7.10;3.63;;;;;;;;;;5038962;28;20040;-76
2024/01/08 04:16:22;;;;;;;6.07;2.92;;;;;;;;;;5033208;28;20219;-75
2024/01/08 04:18:48;;;;;;;5.63;2.97;;;;;;;;;;5034136;28;20560;-76
2024/01/08 04:21:16;;;;;;;5.20;3.10;;;;;;;;;;5036177;28;20035;-75
2024/01/08 04:23:42;;;;;;;5.95;3.42;;;;;;;;;;5037808;28;20048;-76
2024/01/08 04:26:13;;;;;;;4.55;2.95;;;;;;;;;;5017551;28;20406;-76
2024/01/08 04:28:38;;;;;;;5.38;3.08;;;;;;;;;;5035658;28;20579;-75
2024/01/08 04:31:04;;;;;;;5.93;3.30;;;;;;;;;;5036087;28;20082;-74
2024/01/08 04:33:29;;;;;;;5.60;3.45;;;;;;;;;;5036682;28;20098;-75
2024/01/08 04:35:54;;;;;;;6.43;3.22;;;;;;;;;;5038046;28;20078;-75
2024/01/08 04:38:20;;;;;;;3.42;1.90;;;;;;;;;;5004874;28;20069;-77
2024/01/08 04:40:45;;;;;;;6.22;3.17;;;;;;;;;;5012445;28;20497;-77
2024/01/08 04:43:10;;;;;;;4.00;3.13;;;;;;;;;;5017438;28;20146;-75
2024/01/08 04:45:36;;;;;;;5.95;4.45;;;;;;;;;;5030378;28;20075;-75
2024/01/08 04:48:03;;;;;;;5.13;3.08;;;;;;;;;;5016075;28;20040;-77
2024/01/08 04:50:29;;;;;;;4.25;2.83;;;;;;;;;;5016714;28;20418;-75
2024/01/08 04:52:54;;;;;;;5.70;4.18;;;;;;;;;;5001206;28;20041;-77
2024/01/08 04:55:20;;;;;;;6.45;3.15;;;;;;;;;;5016297;28;20048;-78
2024/01/08 04:57:46;;;;;;;4.70;3.35;;;;;;;;;;5020137;28;20118;-75
2024/01/08 05:00:12;;;;;;;6.68;4.47;;;;;;;;;;5032286;28;20087;-74
2024/01/08 05:02:37;;;;;;;6.18;3.38;;;;;;;;;;5032799;28;20037;-74
2024/01/08 05:05:04;;;;;;;6.40;3.88;;;;;;;;;;5029004;28;20036;-76
2024/01/08 05:07:30;;;;;;;5.38;3.17;;;;;;;;;;5016217;28;20033;-77
2024/01/08 05:09:55;;;;;;;4.85;3.40;;;;;;;;;;5007242;28;20037;-74
2024/01/08 05:12:21;;;;;;;4.13;2.80;;;;;;;;;;5019477;28;20094;-74
2024/01/08 05:14:46;;;;;;;4.50;3.08;;;;;;;;;;5032227;28;20044;-77
2024/01/08 05:17:12;;;;;;;5.43;3.13;;;;;;;;;;5038319;28;20402;-74
2024/01/08 05:19:37;;;;;;;7.05;3.55;;;;;;;;;;5032551;28;20709;-77
2024/01/08 05:22:03;;;;;;;6.85;3.63;;;;;;;;;;5023114;28;20127;-74
2024/01/08 05:24:28;;;;;;;5.18;3.30;;;;;;;;;;5028419;28;20048;-76
2024/01/08 05:26:53;;;;;;;7.30;3.75;;;;;;;;;;5034196;28;20040;-73
2024/01/08 05:29:19;;;;;;;6.22;4.47;;;;;;;;;;5037608;28;20090;-74
2024/01/08 05:31:44;;;;;;;5.50;4.05;;;;;;;;;;5010275;28;20702;-75
2024/01/08 05:34:10;;;;;;;5.95;3.17;;;;;;;;;;5033674;28;20125;-75
2024/01/08 05:36:35;;;;;;;7.28;4.50;;;;;;;;;;5020796;28;20037;-76
2024/01/08 05:39:01;;;;;;;5.70;2.88;;;;;;;;;;5037658;28;20049;-77
2024/01/08 05:41:26;;;;;;;4.75;3.00;;;;;;;;;;5019188;28;20084;-76
2024/01/08 05:43:52;;;;;;;6.25;3.33;;;;;;;;;;5032913;28;20102;-77
2024/01/08 05:46:17;;;;;;;6.50;3.75;;;;;;;;;;5021834;28;20045;-77
2024/01/08 05:48:42;;;;;;;7.13;3.80;;;;;;;;;;4982698;28;20133;-77
2024/01/08 05:51:08;;;;;;;9.15;4.13;;;;;;;;;;4991226;28;20034;-77
2024/01/08 05:53:34;;;;;;;7.68;4.68;;;;;;;;;;5017910;28;20042;-77
2024/01/08 05:55:59;;;;;;;6.03;3.63;;;;;;;;;;5000885;28;20049;-76
2024/01/08 05:58:25;;;;;;;6.43;3.00;;;;;;;;;;5009219;28;20044;-77
2024/01/08 06:00:53;;;;;;;8.32;4.68;;;;;;;;;;5039690;28;20059;-79
2024/01/08 06:03:19;;;;;;;8.80;3.97;;;;;;;;;;5019967;28;20649;-77
2024/01/08 06:05:45;;;;;;;8.65;5.00;;;;;;;;;;5022306;28;20135;-76
2024/01/08 06:08:10;;;;;;;8.25;3.63;;;;;;;;;;5026448;28;20129;-77
2024/01/08 06:10:35;;;;;;;7.97;4.88;;;;;;;;;;5037174;28;20513;-78
2024/01/08 06:13:01;;;;;;;4.63;2.47;;;;;;;;;;5026242;28;20140;-75
2024/01/08 06:15:26;;;;;;;8.15;4.32;;;;;;;;;;5030630;28;20152;-77
2024/01/08 06:17:51;;;;;;;6.72;3.40;;;;;;;;;;5026805;28;20075;-77
2024/01/08 06:20:17;;;;;;;6.07;3.35;;;;;;;;;;4999622;28;20579;-76
2024/01/08 06:22:42;;;;;;;8.70;3.80;;;;;;;;;;5032175;28;20051;-74
2024/01/08 06:25:08;;;;;;;7.82;4.13;;;;;;;;;;5034816;28;20497;-76
2024/01/08 06:27:33;;;;;;;8.25;4.40;;;;;;;;;;5036124;28;20438;-74
2024/01/08 06:29:59;;;;;;;9.07;4.38;;;;;;;;;;5035996;28;20460;-75
2024/01/08 06:32:24;;;;;;;6.13;2.88;;;;;;;;;;5035232;28;20172;-76
2024/01/08 06:34:50;;;;;;;8.63;4.57;;;;;;;;;;5020809;28;20081;-76
2024/01/08 06:37:15;;;;;;;7.93;4.15;;;;;;;;;;5032433;28;20064;-74
2024/01/08 06:39:40;;;;;;;7.07;4.00;;;;;;;;;;5035459;28;20713;-76
2024/01/08 06:42:06;;;;;;;7.85;3.10;;;;;;;;;;5031212;28;20720;-76
2024/01/08 06:44:31;;;;;;;7.13;4.07;;;;;;;;;;5034909;28;20516;-76
2024/01/08 06:46:57;;;;;;;11.10;4.57;;;;;;;;;;5030274;28;20136;-76
2024/01/08 06:49:22;;;;;;;8.98;4.25;;;;;;;;;;5009545;28;20092;-77
2024/01/08 06:51:47;;;;;;;11.55;6.38;;;;;;;;;;5033757;28;20045;-77
2024/01/08 06:54:13;;;;;;;8.40;4.68;;;;;;;;;;5037909;28;20121;-77
2024/01/08 06:56:39;;;;;;;9.75;4.75;;;;;;;;;;5015913;28;20075;-76
2024/01/08 06:59:04;;;;;;;9.00;5.50;;;;;;;;;;5029885;28;20049;-77
2024/01/08 07:01:31;;;;;;;9.48;4.07;;;;;;;;;;5005012;28;20052;-76
2024/01/08 07:03:57;;;;;;;9.65;5.32;;;;;;;;;;5031352;28;20535;-76
2024/01/08 07:06:23;;;;;;;8.05;4.50;;;;;;;;;;5019317;28;20037;-74
2024/01/08 07:08:48;;;;;;;8.88;3.88;;;;;;;;;;5031031;28;20064;-77
2024/01/08 07:11:23;;;;;;;12.57;4.93;;;;;;;;;;5034827;28;20131;-77
2024/01/08 07:13:49;;;;;;;10.95;5.15;;;;;;;;;;5030723;28;20044;-76
2024/01/08 07:16:16;;;;;;;11.45;3.90;;;;;;;;;;4999812;28;20033;-76
2024/01/08 07:18:41;;;;;;;10.73;4.93;;;;;;;;;;5012668;28;20056;-77
2024/01/08 07:21:07;;;;;;;11.73;4.78;;;;;;;;;;5013896;28;20041;-75
2024/01/08 07:23:35;;;;;;;9.45;4.80;;;;;;;;;;5013527;28;20704;-76
2024/01/08 07:26:00;;;;;;;11.07;6.00;;;;;;;;;;5029127;28;20386;-77
2024/01/08 07:28:26;;;;;;;11.75;4.90;;;;;;;;;;5030541;28;20040;-76
2024/01/08 07:30:52;;;;;;;9.70;5.30;;;;;;;;;;5020375;28;20056;-76
2024/01/08 07:33:17;;;;;;;11.07;5.20;;;;;;;;;;5034163;28;20041;-76
2024/01/08 07:35:42;;;;;;;12.13;4.95;;;;;;;;;;5017282;28;20091;-76
2024/01/08 07:38:08;;;;;;;12.70;5.82;;;;;;;;;;5035008;28;20633;-77
2024/01/08 07:40:33;;;;;;;13.57;5.88;;;;;;;;;;5022619;28;20086;-76
2024/01/08 07:42:59;;;;;;;7.93;3.22;;;;;;;;;;5037735;28;20055;-76
2024/01/08 07:45:26;;;;;;;8.82;5.15;;;;;;;;;;5025847;28;20479;-76
2024/01/08 07:47:52;;;;;;;12.43;7.30;;;;;;;;;;5020682;28;20037;-77
2024/01/08 07:50:19;;;;;;;12.85;7.43;;;;;;;;;;5039900;28;20079;-76
2024/01/08 07:52:44;;;;;;;9.88;5.40;;;;;;;;;;5032035;28;20054;-75
2024/01/08 07:55:10;;;;;;;12.07;7.05;;;;;;;;;;5033698;28;20509;-77
2024/01/08 07:57:36;;;;;;;11.35;5.75;;;;;;;;;;5023324;28;20068;-76
2024/01/08 08:00:03;;;;;;;13.88;6.90;;;;;;;;;;5019312;28;20036;-77
2024/01/08 08:02:29;;;;;;;14.52;5.95;;;;;;;;;;5038828;28;20040;-77
2024/01/08 08:04:54;;;;;;;13.95;7.22;;;;;;;;;;5015217;28;20040;-76
2024/01/08 08:07:19;;;;;;;14.23;6.05;;;;;;;;;;5018542;28;20045;-76
2024/01/08 08:09:45;;;;;;;13.00;6.05;;;;;;;;;;5031291;28;20041;-76
2024/01/08 08:12:10;;;;;;;11.15;6.28;;;;;;;;;;5024293;28;20044;-76
2024/01/08 08:14:36;;;;;;;13.13;6.60;;;;;;;;;;5036067;28;20036;-76
2024/01/08 08:17:03;;;;;;;11.10;5.38;;;;;;;;;;5036537;28;20079;-76
2024/01/08 08:19:28;;;;;;;8.88;4.05;;;;;;;;;;5037525;28;20041;-76
2024/01/08 08:21:54;;;;;;;14.50;5.78;;;;;;;;;;5034189;28;20045;-76
2024/01/08 08:24:19;;;;;;;14.40;6.88;;;;;;;;;;5025459;28;20037;-75
2024/01/08 08:26:45;;;;;;;13.93;5.82;;;;;;;;;;5025668;28;20540;-76
2024/01/08 08:29:10;;;;;;;15.02;8.25;;;;;;;;;;5035532;28;20060;-76
2024/01/08 08:31:35;;;;;;;12.10;6.28;;;;;;;;;;5017511;28;20441;-76
2024/01/08 08:34:01;;;;;;;13.07;7.05;;;;;;;;;;5036860;28;20037;-76
2024/01/08 08:36:27;;;;;;;12.45;7.20;;;;;;;;;;5029732;28;20742;-76
2024/01/08 08:38:52;;;;;;;12.50;5.40;;;;;;;;;;5036945;28;20049;-76
2024/01/08 08:41:19;;;;;;;13.02;6.25;;;;;;;;;;5020438;28;20181;-76
2024/01/08 08:43:44;;;;;;;14.00;7.00;;;;;;;;;;5020728;28;20041;-76
2024/01/08 08:46:10;;;;;;;18.15;8.32;;;;;;;;;;5019285;28;20030;-76
2024/01/08 08:48:36;;;;;;;16.17;7.32;;;;;;;;;;5027708;28;20029;-76
2024/01/08 08:51:01;;;;;;;15.27;6.70;;;;;;;;;;5033652;28;20086;-76
2024/01/08 08:53:28;;;;;;;13.32;7.55;;;;;;;;;;5031694;28;20059;-76
2024/01/08 08:55:53;;;;;;;15.38;8.27;;;;;;;;;;5018551;28;20037;-74
2024/01/08 08:58:20;;;;;;;14.73;7.57;;;;;;;;;;5011851;28;20072;-76
2024/01/08 09:00:46;;;;;;;15.05;5.55;;;;;;;;;;5030001;28;20179;-76
2024/01/08 09:03:11;;;;;;;13.07;6.45;;;;;;;;;;5030634;28;20048;-77
2024/01/08 09:05:37;;;;;;;15.60;8.02;;;;;;;;;;5030513;28;20041;-76
2024/01/08 09:08:03;;;;;;;18.92;9.60;;;;;;;;;;5028877;28;20646;-76
2024/01/08 09:10:28;;;;;;;13.50;5.72;;;;;;;;;;5020837;28;20584;-76
2024/01/08 09:12:54;;;;;;;12.60;6.85;;;;;;;;;;5029251;28;20178;-76
2024/01/08 09:15:19;;;;;;;16.67;8.73;;;;;;;;;;5030178;28;20128;-76
2024/01/08 09:17:45;;;;;;;12.82;6.40;;;;;;;;;;5025129;28;20037;-76
2024/01/08 09:20:14;;;;;;;12.70;6.85;;;;;;;;;;5018797;28;20552;-76
2024/01/08 09:22:39;;;;;;;13.80;7.40;;;;;;;;;;5021241;28;20060;-76
2024/01/08 09:25:06;;;;;;;13.07;6.70;;;;;;;;;;5020526;28;20054;-76
2024/01/08 09:27:32;;;;;;;13.55;7.18;;;;;;;;;;5028010;28;20041;-77
2024/01/08 09:29:58;;;;;;;11.57;6.18;;;;;;;;;;5027120;28;20063;-77
2024/01/08 09:32:27;;;;;;;10.65;5.32;;;;;;;;;;5025716;28;20113;-76
2024/01/08 09:34:52;;;;;;;15.82;7.78;;;;;;;;;;5028999;28;20044;-77
2024/01/08 09:37:19;;;;;;;15.93;9.30;;;;;;;;;;5018904;28;20443;-77
2024/01/08 09:39:44;;;;;;;11.65;7.10;;;;;;;;;;5025839;28;20082;-76
2024/01/08 09:42:10;;;;;;;8.27;4.22;;;;;;;;;;5032381;28;20472;-76
2024/01/08 09:44:37;;;;;;;15.13;7.65;;;;;;;;;;5029849;28;20043;-77
2024/01/08 09:47:04;;;;;;;17.48;8.52;;;;;;;;;;5028418;28;20040;-77
2024/01/08 09:49:32;;;;;;;16.73;10.45;;;;;;;;;;5031462;28;20052;-77
2024/01/08 09:51:59;;;;;;;15.88;7.30;;;;;;;;;;5026796;28;20519;-76
2024/01/08 09:54:25;;;;;;;18.25;9.13;;;;;;;;;;5034512;28;20048;-76
2024/01/08 09:56:53;;;;;;;15.63;7.53;;;;;;;;;;5032994;28;20079;-77
2024/01/08 09:59:20;;;;;;;16.33;7.47;;;;;;;;;;5032028;28;20132;-77
2024/01/08 10:01:46;;;;;;;12.48;6.55;;;;;;;;;;5019605;28;20037;-76
2024/01/08 10:04:12;;;;;;;14.63;7.05;;;;;;;;;;5001384;28;20082;-77
2024/01/08 10:06:40;;;;;;;17.98;9.60;;;;;;;;;;5023207;28;20047;-77
2024/01/08 10:09:05;;;;;;;12.68;6.60;;;;;;;;;;5026643;28;20036;-77
2024/01/08 10:11:30;;;;;;;17.30;7.82;;;;;;;;;;5032460;28;20044;-77
2024/01/08 10:13:56;;;;;;;16.85;10.25;;;;;;;;;;5025093;28;20061;-77
2024/01/08 10:16:25;;;;;;;13.77;7.75;;;;;;;;;;5031165;28;20497;-77
2024/01/08 10:18:51;;;;;;;13.93;7.15;;;;;;;;;;5018451;28;20045;-77
2024/01/08 10:21:17;;;;;;;19.58;12.13;;;;;;;;;;5009575;28;20043;-77
2024/01/08 10:23:43;;;;;;;14.35;7.15;;;;;;;;;;5006174;28;20037;-78
2024/01/08 10:26:13;;;;;;;17.60;10.25;;;;;;;;;;5015017;28;20041;-77
2024/01/08 10:28:39;;;;;;;10.73;5.68;;;;;;;;;;5030476;28;20127;-77
2024/01/08 10:31:07;;;;;;;14.63;8.38;;;;;;;;;;5034171;28;20405;-77
2024/01/08 10:33:32;;;;;;;19.60;8.15;;;;;;;;;;5022850;28;20033;-78
2024/01/08 10:36:04;;;;;;;14.43;7.65;;;;;;;;;;5016974;28;20421;-78
2024/01/08 10:38:33;;;;;;;14.30;8.60;;;;;;;;;;5036652;28;20124;-78
2024/01/08 10:41:01;;;;;;;17.05;6.72;;;;;;;;;;5023097;28;20037;-77
2024/01/08 10:43:30;;;;;;;17.02;9.32;;;;;;;;;;5034250;28;20068;-77
2024/01/08 10:46:00;;;;;;;13.68;7.50;;;;;;;;;;5011722;28;20116;-77
2024/01/08 10:48:42;;;;;;;12.17;6.00;;;;;;;;;;5028700;28;20033;-77
2024/01/08 10:51:11;;;;;;;14.00;6.43;;;;;;;;;;5027823;28;20059;-77
2024/01/08 10:53:46;;;;;;;13.38;7.10;;;;;;;;;;5015134;28;20821;-77
2024/01/08 10:56:14;;;;;;;13.88;7.45;;;;;;;;;;5020063;28;20033;-77
2024/01/08 10:58:49;;;;;;;15.40;8.20;;;;;;;;;;5030693;28;20037;-77
2024/01/08 11:01:16;;;;;;;12.82;7.40;;;;;;;;;;5026733;28;20473;-77
2024/01/08 11:03:43;;;;;;;19.83;9.40;;;;;;;;;;5010242;28;20134;-77
2024/01/08 11:06:10;;;;;;;21.00;10.00;;;;;;;;;;5010771;28;20651;-77
2024/01/08 11:08:35;;;;;;;25.38;13.40;;;;;;;;;;5016572;28;20592;-77
2024/01/08 11:11:08;;;;;;;14.02;7.03;;;;;;;;;;5030391;28;20045;-77
2024/01/08 11:13:34;;;;;;;15.05;7.13;;;;;;;;;;5035371;28;20036;-77
2024/01/08 11:16:06;;;;;;;11.93;6.43;;;;;;;;;;5033157;28;20520;-77
2024/01/08 11:18:31;;;;;;;13.88;5.82;;;;;;;;;;5016063;28;20436;-77
2024/01/08 11:20:57;;;;;;;13.30;6.65;;;;;;;;;;5035030;28;20122;-77
2024/01/08 11:23:38;;;;;;;16.65;6.80;;;;;;;;;;5006633;28;20050;-77
2024/01/08 11:26:07;;;;;;;;;;;;;;;;;;5025954;28;20187;-75
2024/01/08 11:28:35;;;;;;;13.57;7.40;;;;;;;;;;5018331;28;20005;-77
2024/01/08 11:31:09;;;;;;;10.93;6.20;;;;;;;;;;5013516;28;20053;-77
2024/01/08 11:33:50;;;;;;;13.00;7.43;;;;;;;;;;5001740;28;20660;-77
2024/01/08 11:36:17;;;;;;;13.48;6.82;;;;;;;;;;5035150;28;20045;-77
2024/01/08 11:39:04;;;;;;;14.30;8.00;;;;;;;;;;5031636;28;20092;-77
2024/01/08 11:41:30;;;;;;;12.98;7.03;;;;;;;;;;5029754;28;20516;-77
2024/01/08 11:43:56;;;;;;;14.90;7.57;;;;;;;;;;4979048;28;20120;-77
2024/01/08 11:46:21;;;;;;;10.98;5.75;;;;;;;;;;5032545;28;20159;-77
2024/01/08 11:48:47;;;;;;;10.95;5.57;;;;;;;;;;5027853;28;20159;-77
2024/01/08 11:51:12;;;;;;;7.35;3.75;;;;;;;;;;5038520;28;20040;-78
2024/01/08 11:53:38;;;;;;;11.23;5.97;;;;;;;;;;5034540;28;20041;-77
2024/01/08 11:56:04;;;;;;;17.92;6.95;;;;;;;;;;5024335;28;20037;-78
2024/01/08 11:58:30;;;;;;;13.85;7.53;;;;;;;;;;5035695;28;20167;-77
2024/01/08 12:00:55;;;;;;;13.68;7.57;;;;;;;;;;5038887;28;20063;-77
2024/01/08 12:03:23;;;;;;;9.20;4.03;;;;;;;;;;5021738;28;20041;-78
2024/01/08 12:06:02;;;;;;;11.50;7.35;;;;;;;;;;5035832;28;20111;-77
2024/01/08 12:08:30;;;;;;;14.38;7.03;;;;;;;;;;5014222;28;20056;-77
2024/01/08 12:10:55;;;;;;;8.63;5.18;;;;;;;;;;5017932;28;20029;-75
2024/01/08 12:13:21;;;;;;;11.57;5.38;;;;;;;;;;5032363;28;20536;-77
2024/01/08 12:15:48;;;;;;;12.45;5.97;;;;;;;;;;5028777;28;20143;-75
2024/01/08 12:18:14;;;;;;;13.20;7.38;;;;;;;;;;5032843;28;20148;-77
2024/01/08 12:20:39;;;;;;;9.98;4.88;;;;;;;;;;5027273;28;20135;-77
2024/01/08 12:23:05;;;;;;;11.05;4.90;;;;;;;;;;5014565;28;20064;-77
2024/01/08 12:25:30;;;;;;;12.32;6.93;;;;;;;;;;5023101;28;20068;-77
2024/01/08 12:27:59;;;;;;;12.48;7.57;;;;;;;;;;5032381;28;20120;-76
2024/01/08 12:30:26;;;;;;;10.00;6.00;;;;;;;;;;5029128;28;20038;-76
2024/01/08 12:32:53;;;;;;;10.13;5.90;;;;;;;;;;5029554;28;20036;-76
2024/01/08 12:35:18;;;;;;;10.80;6.40;;;;;;;;;;5033479;28;20095;-77
2024/01/08 12:37:44;;;;;;;11.68;6.78;;;;;;;;;;5030163;28;20043;-76
2024/01/08 12:40:10;;;;;;;7.57;3.95;;;;;;;;;;5018036;28;20048;-77
2024/01/08 12:42:36;;;;;;;11.35;6.85;;;;;;;;;;5016845;28;20079;-76
2024/01/08 12:45:04;;;;;;;12.18;5.93;;;;;;;;;;5027946;28;20119;-76
2024/01/08 12:47:30;;;;;;;11.88;6.18;;;;;;;;;;5031823;28;20048;-74
2024/01/08 12:49:56;;;;;;;9.63;4.97;;;;;;;;;;5029628;28;20045;-76
2024/01/08 12:52:24;;;;;;;10.75;5.47;;;;;;;;;;5010574;28;20102;-76
2024/01/08 12:54:50;;;;;;;11.18;6.25;;;;;;;;;;5029125;28;20119;-76
2024/01/08 12:57:16;;;;;;;10.95;5.57;;;;;;;;;;5019269;28;20118;-76
2024/01/08 12:59:52;;;;;;;10.68;5.03;;;;;;;;;;5016272;28;20053;-75
2024/01/08 13:02:18;;;;;;;13.57;7.60;;;;;;;;;;5025249;28;20087;-76
2024/01/08 13:04:45;;;;;;;14.02;6.88;;;;;;;;;;5029895;28;21398;-75
2024/01/08 13:07:11;;;;;;;13.85;6.13;;;;;;;;;;4994211;28;20083;-76
2024/01/08 13:09:37;;;;;;;7.45;3.80;;;;;;;;;;5008577;28;20045;-76
2024/01/08 13:12:04;;;;;;;11.40;6.00;;;;;;;;;;5010596;28;20041;-76
2024/01/08 13:14:29;;;;;;;11.45;5.43;;;;;;;;;;5025335;28;20029;-76
2024/01/08 13:16:55;;;;;;;7.57;4.97;;;;;;;;;;5009109;28;20038;-76
2024/01/08 13:19:21;;;;;;;10.77;6.10;;;;;;;;;;5026543;28;20525;-76
2024/01/08 13:21:46;;;;;;;10.27;5.70;;;;;;;;;;4999110;28;20045;-76
2024/01/08 13:24:14;;;;;;;10.68;5.68;;;;;;;;;;5026800;28;20080;-76
2024/01/08 13:26:40;;;;;;;11.77;5.05;;;;;;;;;;5025242;28;20120;-76
2024/01/08 13:29:06;;;;;;;14.57;8.55;;;;;;;;;;5026037;28;20529;-76
2024/01/08 13:31:35;;;;;;;11.15;6.75;;;;;;;;;;5022132;28;20041;-74
2024/01/08 13:34:06;;;;;;;10.07;5.32;;;;;;;;;;4999828;28;20108;-74
2024/01/08 13:36:32;;;;;;;9.38;4.65;;;;;;;;;;5027732;28;20041;-76
2024/01/08 13:38:59;;;;;;;9.63;5.05;;;;;;;;;;5016421;28;20067;-76
2024/01/08 13:41:25;;;;;;;12.43;5.00;;;;;;;;;;5028262;28;20041;-76
2024/01/08 13:43:50;;;;;;;11.15;6.53;;;;;;;;;;5025669;28;20065;-76
2024/01/08 13:46:16;;;;;;;12.43;7.05;;;;;;;;;;5025508;28;20139;-76
2024/01/08 13:48:41;;;;;;;11.10;5.00;;;;;;;;;;5019001;28;20045;-76
2024/01/08 13:51:09;;;;;;;11.25;6.38;;;;;;;;;;5029812;28;20037;-76
2024/01/08 13:53:35;;;;;;;10.88;6.15;;;;;;;;;;5029720;28;20033;-76
2024/01/08 13:56:01;;;;;;;10.45;4.78;;;;;;;;;;5031549;28;20649;-76
2024/01/08 13:58:27;;;;;;;11.05;5.10;;;;;;;;;;5031838;28;20088;-76
2024/01/08 14:00:52;;;;;;;11.02;4.63;;;;;;;;;;5027226;28;20697;-76
2024/01/08 14:03:18;;;;;;;11.05;5.20;;;;;;;;;;5023784;28;21025;-76
2024/01/08 14:05:43;;;;;;;11.70;6.18;;;;;;;;;;5012692;28;20132;-76
2024/01/08 14:08:09;;;;;;;13.13;4.85;;;;;;;;;;5027735;28;20052;-75
2024/01/08 14:10:34;;;;;;;9.73;5.10;;;;;;;;;;5036025;28;20049;-76
2024/01/08 14:13:00;;;;;;;12.57;6.60;;;;;;;;;;5033682;28;20036;-76
2024/01/08 14:15:26;;;;;;;11.25;7.68;;;;;;;;;;5004891;28;20166;-75
2024/01/08 14:17:52;;;;;;;11.10;6.45;;;;;;;;;;5037300;28;20135;-77
2024/01/08 14:20:18;;;;;;;12.07;5.60;;;;;;;;;;5037437;28;20426;-76
2024/01/08 14:22:43;;;;;;;11.32;4.80;;;;;;;;;;5034186;28;20040;-77
2024/01/08 14:25:08;;;;;;;9.77;4.18;;;;;;;;;;5036227;28;20544;-76
2024/01/08 14:27:36;;;;;;;12.43;4.95;;;;;;;;;;5036270;28;20070;-77
2024/01/08 14:30:03;;;;;;;15.10;6.88;;;;;;;;;;5011366;28;20094;-76
2024/01/08 14:32:30;;;;;;;11.63;5.85;;;;;;;;;;5034530;28;20037;-77